createdAt,value
2023-04-17T00:01:24.854Z,6.30
2023-04-17T00:03:58.179Z,7.50
2023-04-17T00:06:30.214Z,6.70
2023-04-17T00:09:01.282Z,9.20
2023-04-17T00:14:02.187Z,7.10
2023-04-17T00:16:33.539Z,8.20
2023-04-17T00:19:04.764Z,7.20
2023-04-17T00:21:38.790Z,8.40
2023-04-17T00:24:10.185Z,6.20
2023-04-17T00:26:41.308Z,11.60
2023-04-17T00:29:12.646Z,7.20
2023-04-17T00:31:44.040Z,5.80
2023-04-17T00:34:18.930Z,5.40
2023-04-17T00:36:50.399Z,7.30
2023-04-17T00:41:50.742Z,7.40
2023-04-17T00:44:21.687Z,8.10
2023-04-17T00:46:52.833Z,8.70
2023-04-17T00:49:24.749Z,10.10
2023-04-17T00:51:56.237Z,9.20
2023-04-17T00:54:27.495Z,6.20
2023-04-17T00:59:29.682Z,6.30
2023-04-17T01:02:01.241Z,6.50
2023-04-17T01:04:33.402Z,7.90
2023-04-17T01:07:05.220Z,9.60
2023-04-17T01:09:36.639Z,7.60
2023-04-17T01:12:21.490Z,8.50
2023-04-17T01:14:54.121Z,6.50
2023-04-17T01:17:27.835Z,5.60
2023-04-17T01:20:00.179Z,9.60
2023-04-17T01:22:32.305Z,9.60
2023-04-17T01:25:03.357Z,8.20
2023-04-17T01:27:35.305Z,6.90
2023-04-17T01:30:07.465Z,7.90
2023-04-17T01:32:39.089Z,8.70
2023-04-17T01:35:11.470Z,7.30
2023-04-17T01:37:42.721Z,7.00
2023-04-17T01:40:14.672Z,7.50
2023-04-17T01:42:45.709Z,6.10
2023-04-17T01:45:16.828Z,9.10
2023-04-17T01:47:47.928Z,6.00
2023-04-17T01:50:19.278Z,6.70
2023-04-17T01:52:50.343Z,7.10
2023-04-17T01:55:21.732Z,7.70
2023-04-17T01:57:55.205Z,5.80
2023-04-17T02:00:26.693Z,7.20
2023-04-17T02:02:58.094Z,9.40
2023-04-17T02:05:29.527Z,10.10
2023-04-17T02:08:00.480Z,9.20
2023-04-17T02:10:31.779Z,6.80
2023-04-17T02:13:02.849Z,8.40
2023-04-17T02:15:34.073Z,5.80
2023-04-17T02:18:06.217Z,6.50
2023-04-17T02:20:37.885Z,5.60
2023-04-17T02:23:09.396Z,11.10
2023-04-17T02:25:40.420Z,5.30
2023-04-17T02:28:12.393Z,8.10
2023-04-17T02:30:43.427Z,8.10
2023-04-17T02:33:14.480Z,8.70
2023-04-17T02:35:45.925Z,7.20
2023-04-17T02:38:17.098Z,6.30
2023-04-17T02:40:48.431Z,6.70
2023-04-17T02:43:19.561Z,6.40
2023-04-17T02:45:51.421Z,8.10
2023-04-17T02:48:22.454Z,4.10
2023-04-17T02:50:53.399Z,5.00
2023-04-17T02:53:24.386Z,6.00
2023-04-17T02:55:55.383Z,4.40
2023-04-17T02:58:26.411Z,5.30
2023-04-17T03:01:03.971Z,6.70
2023-04-17T03:03:38.737Z,4.50
2023-04-17T03:06:10.840Z,4.50
2023-04-17T03:08:41.780Z,6.50
2023-04-17T03:11:12.808Z,5.50
2023-04-17T03:13:44.688Z,6.40
2023-04-17T03:16:15.640Z,5.00
2023-04-17T03:18:46.721Z,5.80
2023-04-17T03:21:17.728Z,4.50
2023-04-17T03:23:48.721Z,7.00
2023-04-17T03:26:19.830Z,6.80
2023-04-17T03:28:50.748Z,4.90
2023-04-17T03:31:24.558Z,6.00
2023-04-17T03:33:55.532Z,5.60
2023-04-17T03:36:27.407Z,5.00
2023-04-17T03:38:59.617Z,4.50
2023-04-17T03:41:30.612Z,5.80
2023-04-17T03:44:01.761Z,5.50
2023-04-17T03:46:32.888Z,3.90
2023-04-17T03:51:33.817Z,5.00
2023-04-17T03:56:34.420Z,4.20
2023-04-17T03:59:05.974Z,3.70
2023-04-17T04:04:10.364Z,3.50
2023-04-17T04:06:42.883Z,4.20
2023-04-17T04:09:13.906Z,4.60
2023-04-17T04:11:45.122Z,5.20
2023-04-17T04:14:16.757Z,4.70
2023-04-17T04:16:47.853Z,4.90
2023-04-17T04:19:19.004Z,5.20
2023-04-17T04:24:21.257Z,4.90
2023-04-17T04:26:52.662Z,5.70
2023-04-17T04:29:25.767Z,3.80
2023-04-17T04:31:57.522Z,4.50
2023-04-17T04:37:01.486Z,3.80
2023-04-17T04:39:32.574Z,3.80
2023-04-17T04:42:06.289Z,3.60
2023-04-17T04:44:37.697Z,3.60
2023-04-17T04:47:09.137Z,3.60
2023-04-17T04:49:39.959Z,9.90
2023-04-17T04:52:11.465Z,6.30
2023-04-17T04:57:12.156Z,4.40
2023-04-17T04:59:43.360Z,5.50
2023-04-17T05:02:14.388Z,5.60
2023-04-17T05:07:15.622Z,3.60
2023-04-17T05:09:46.720Z,3.10
2023-04-17T05:12:17.778Z,4.30
2023-04-17T05:14:49.207Z,5.10
2023-04-17T05:19:49.739Z,5.10
2023-04-17T05:22:21.752Z,5.90
2023-04-17T05:24:53.008Z,3.40
2023-04-17T05:27:23.912Z,5.90
2023-04-17T05:29:54.930Z,8.10
2023-04-17T05:32:26.140Z,5.10
2023-04-17T05:37:26.863Z,7.20
2023-04-17T05:40:00.148Z,5.80
2023-04-17T05:42:31.259Z,6.70
2023-04-17T05:45:02.536Z,5.50
2023-04-17T05:47:33.599Z,6.60
2023-04-17T05:50:05.134Z,5.80
2023-04-17T05:52:38.718Z,5.50
2023-04-17T05:55:11.859Z,5.20
2023-04-17T05:57:42.853Z,5.40
2023-04-17T06:00:17.266Z,3.70
2023-04-17T06:02:48.564Z,4.90
2023-04-17T06:07:50.313Z,3.50
2023-04-17T06:10:21.759Z,4.50
2023-04-17T06:12:52.754Z,3.60
2023-04-17T06:15:23.925Z,5.90
2023-04-17T06:17:55.131Z,6.30
2023-04-17T06:20:26.460Z,9.00
2023-04-17T06:22:57.541Z,6.30
2023-04-17T06:25:28.511Z,5.60
2023-04-17T06:27:59.589Z,6.20
2023-04-17T06:30:30.689Z,6.80
2023-04-17T06:33:01.731Z,7.60
2023-04-17T06:35:33.297Z,9.60
2023-04-17T06:38:04.439Z,7.50
2023-04-17T06:43:05.195Z,5.40
2023-04-17T06:48:08.514Z,7.40
2023-04-17T06:50:39.865Z,6.40
2023-04-17T06:53:10.824Z,5.30
2023-04-17T06:55:41.774Z,6.00
2023-04-17T06:58:12.656Z,5.20
2023-04-17T07:00:43.666Z,7.10
2023-04-17T07:03:15.140Z,4.80
2023-04-17T07:05:47.725Z,5.20
2023-04-17T07:08:22.375Z,4.00
2023-04-17T07:10:54.682Z,3.90
2023-04-17T07:13:25.615Z,3.50
2023-04-17T07:15:57.781Z,3.60
2023-04-17T07:18:29.580Z,4.40
2023-04-17T07:21:01.542Z,3.70
2023-04-17T07:23:33.163Z,4.80
2023-04-17T07:28:34.234Z,3.50
2023-04-17T07:31:08.238Z,4.10
2023-04-17T07:33:40.571Z,3.40
2023-04-17T07:36:13.461Z,3.60
2023-04-17T07:38:44.473Z,3.70
2023-04-17T07:43:44.889Z,6.10
2023-04-17T07:46:16.230Z,5.30
2023-04-17T07:48:47.639Z,5.90
2023-04-17T07:51:18.769Z,5.60
2023-04-17T07:53:49.805Z,6.50
2023-04-17T07:56:20.921Z,5.20
2023-04-17T08:01:22.933Z,7.00
2023-04-17T08:03:55.692Z,7.10
2023-04-17T08:06:26.801Z,6.70
2023-04-17T08:08:59.798Z,7.00
2023-04-17T08:11:31.174Z,6.00
2023-04-17T08:14:02.331Z,7.70
2023-04-17T08:16:33.956Z,6.30
2023-04-17T08:19:05.155Z,8.00
2023-04-17T08:21:36.204Z,7.40
2023-04-17T08:24:08.137Z,6.40
2023-04-17T08:26:39.238Z,6.00
2023-04-17T08:29:10.587Z,6.40
2023-04-17T08:31:42.454Z,7.00
2023-04-17T08:34:15.366Z,6.30
2023-04-17T08:36:48.008Z,6.70
2023-04-17T08:39:19.656Z,5.20
2023-04-17T08:42:00.518Z,6.90
2023-04-17T08:44:31.914Z,6.70
2023-04-17T08:47:04.652Z,5.30
2023-04-17T08:49:37.304Z,5.80
2023-04-17T08:52:09.916Z,7.80
2023-04-17T08:54:41.367Z,5.10
2023-04-17T08:57:12.632Z,5.40
2023-04-17T08:59:45.894Z,5.80
2023-04-17T09:02:17.148Z,6.10
2023-04-17T09:04:48.962Z,5.50
2023-04-17T09:07:29.313Z,5.10
2023-04-17T09:10:00.466Z,4.60
2023-04-17T09:12:31.605Z,5.60
2023-04-17T09:15:15.615Z,4.70
2023-04-17T09:17:46.549Z,5.60
2023-04-17T09:20:17.453Z,4.10
2023-04-17T09:22:49.023Z,5.00
2023-04-17T09:25:23.331Z,4.90
2023-04-17T09:27:56.498Z,5.00
2023-04-17T09:30:28.868Z,9.00
2023-04-17T09:33:07.846Z,4.10
2023-04-17T09:35:40.179Z,4.50
2023-04-17T09:38:11.908Z,7.10
2023-04-17T09:40:45.328Z,5.90
2023-04-17T09:43:16.295Z,3.30
2023-04-17T09:45:47.681Z,5.10
2023-04-17T09:48:19.528Z,5.10
2023-04-17T09:50:51.590Z,5.00
2023-04-17T09:53:23.744Z,5.50
2023-04-17T09:55:55.923Z,5.70
2023-04-17T09:58:27.350Z,5.50
2023-04-17T10:00:58.409Z,5.40
2023-04-17T10:03:30.493Z,4.90
2023-04-17T10:06:03.162Z,6.90
2023-04-17T10:08:35.015Z,5.70
2023-04-17T10:11:09.208Z,4.30
2023-04-17T10:13:42.909Z,5.00
2023-04-17T10:16:13.901Z,5.90
2023-04-17T10:18:45.024Z,5.40
2023-04-17T10:21:26.712Z,6.90
2023-04-17T10:23:57.972Z,5.80
2023-04-17T10:26:42.510Z,6.90
2023-04-17T10:29:13.780Z,5.30
2023-04-17T10:32:18.612Z,4.60
2023-04-17T10:34:49.860Z,5.20
2023-04-17T10:37:23.141Z,4.30
2023-04-17T10:40:02.884Z,5.70
2023-04-17T10:42:34.013Z,7.60
2023-04-17T10:45:19.097Z,6.30
2023-04-17T10:48:00.943Z,3.80
2023-04-17T10:50:32.417Z,4.90
2023-04-17T10:53:03.466Z,5.90
2023-04-17T10:55:34.742Z,6.20
2023-04-17T10:58:15.415Z,6.60
2023-04-17T11:00:54.427Z,5.30
2023-04-17T11:03:26.558Z,6.90
2023-04-17T11:06:00.410Z,5.30
2023-04-17T11:08:31.477Z,5.00
2023-04-17T11:11:02.543Z,5.00
2023-04-17T11:13:36.665Z,5.00
2023-04-17T11:16:08.338Z,5.20
2023-04-17T11:18:40.228Z,4.20
2023-04-17T11:21:14.770Z,4.50
2023-04-17T11:23:52.604Z,3.90
2023-04-17T11:26:23.653Z,8.20
2023-04-17T11:28:54.750Z,4.80
2023-04-17T11:31:26.563Z,6.20
2023-04-17T11:33:59.459Z,4.40
2023-04-17T11:36:31.264Z,5.40
2023-04-17T11:39:02.377Z,6.80
2023-04-17T11:41:41.400Z,4.70
2023-04-17T11:44:13.452Z,4.10
2023-04-17T11:46:44.660Z,4.60
2023-04-17T11:49:16.003Z,4.20
2023-04-17T11:51:48.746Z,6.70
2023-04-17T11:54:28.068Z,4.20
2023-04-17T11:57:04.473Z,3.80
2023-04-17T11:59:36.941Z,4.40
2023-04-17T12:02:09.238Z,4.70
2023-04-17T12:04:41.374Z,5.10
2023-04-17T12:07:25.133Z,3.00
2023-04-17T12:09:59.532Z,5.10
2023-04-17T12:12:31.301Z,3.30
2023-04-17T12:15:03.142Z,3.30
2023-04-17T12:17:35.389Z,3.70
2023-04-17T12:20:07.866Z,4.60
2023-04-17T12:22:39.049Z,4.30
2023-04-17T12:25:11.585Z,3.20
2023-04-17T12:27:42.669Z,3.20
2023-04-17T12:30:16.501Z,4.40
2023-04-17T12:32:49.077Z,6.00
2023-04-17T12:35:20.722Z,5.70
2023-04-17T12:37:52.342Z,4.20
2023-04-17T12:40:26.124Z,5.40
2023-04-17T12:42:57.291Z,5.20
2023-04-17T12:45:28.447Z,6.00
2023-04-17T12:47:59.688Z,6.90
2023-04-17T12:50:31.224Z,5.50
2023-04-17T12:53:02.283Z,3.70
2023-04-17T12:55:33.289Z,6.40
2023-04-17T12:58:04.411Z,5.00
2023-04-17T13:00:35.732Z,4.40
2023-04-17T13:03:07.709Z,5.40
2023-04-17T13:05:39.580Z,5.70
2023-04-17T13:08:15.011Z,6.50
2023-04-17T13:10:46.169Z,6.40
2023-04-17T13:13:17.155Z,4.60
2023-04-17T13:15:48.832Z,4.90
2023-04-17T13:18:19.794Z,4.50
2023-04-17T13:20:51.037Z,5.00
2023-04-17T13:23:21.999Z,5.30
2023-04-17T13:25:53.087Z,7.70
2023-04-17T13:28:24.156Z,6.20
2023-04-17T13:30:55.251Z,4.00
2023-04-17T13:33:27.288Z,5.40
2023-04-17T13:35:58.919Z,6.70
2023-04-17T13:38:30.569Z,5.70
2023-04-17T13:41:01.726Z,6.30
2023-04-17T13:43:33.106Z,5.20
2023-04-17T13:46:04.748Z,7.60
2023-04-17T13:48:35.747Z,5.60
2023-04-17T13:51:08.413Z,9.40
2023-04-17T13:53:43.393Z,4.30
2023-04-17T13:56:15.135Z,6.80
2023-04-17T13:58:47.948Z,7.10
2023-04-17T14:01:18.967Z,4.40
2023-04-17T14:03:50.258Z,6.10
2023-04-17T14:06:21.745Z,5.70
2023-04-17T14:08:52.974Z,5.60
2023-04-17T14:11:24.669Z,7.20
2023-04-17T14:13:56.054Z,6.40
2023-04-17T14:16:27.665Z,6.70
2023-04-17T14:19:06.339Z,6.50
2023-04-17T14:21:44.365Z,5.90
2023-04-17T14:24:15.340Z,7.00
2023-04-17T14:26:46.371Z,6.90
2023-04-17T14:29:17.401Z,7.80
2023-04-17T14:31:48.504Z,5.70
2023-04-17T14:34:19.871Z,7.60
2023-04-17T14:36:51.874Z,5.70
2023-04-17T14:39:24.826Z,6.90
2023-04-17T14:41:57.469Z,6.70
2023-04-17T14:44:29.316Z,8.70
2023-04-17T14:47:00.686Z,6.10
2023-04-17T14:49:33.124Z,8.00
2023-04-17T14:52:04.047Z,9.50
2023-04-17T14:54:35.528Z,7.80
2023-04-17T14:57:06.968Z,9.60
2023-04-17T14:59:38.231Z,7.80
2023-04-17T15:02:09.510Z,8.40
2023-04-17T15:04:42.398Z,7.70
2023-04-17T15:07:13.934Z,9.40
2023-04-17T15:09:46.479Z,7.10
2023-04-17T15:12:17.592Z,8.20
2023-04-17T15:14:51.143Z,7.60
2023-04-17T15:17:22.266Z,9.50
2023-04-17T15:19:55.787Z,10.10
2023-04-17T15:22:26.911Z,8.70
2023-04-17T15:25:01.132Z,10.60
2023-04-17T15:27:32.897Z,10.50
2023-04-17T15:30:06.678Z,9.80
2023-04-17T15:32:37.858Z,9.50
2023-04-17T15:35:10.000Z,9.90
2023-04-17T15:37:41.457Z,12.70
2023-04-17T15:40:14.212Z,9.40
2023-04-17T15:42:45.457Z,10.30
2023-04-17T15:45:16.569Z,11.40
2023-04-17T15:47:47.562Z,15.90
2023-04-17T15:50:19.162Z,9.80
2023-04-17T15:52:50.274Z,7.40
2023-04-17T15:55:21.804Z,8.60
2023-04-17T15:57:52.935Z,8.50
2023-04-17T16:00:24.616Z,9.50
2023-04-17T16:02:55.804Z,8.80
2023-04-17T16:05:26.982Z,8.90
2023-04-17T16:07:58.164Z,7.80
2023-04-17T16:10:29.416Z,10.80
2023-04-17T16:13:00.423Z,8.50
2023-04-17T16:15:31.605Z,10.60
2023-04-17T16:18:04.645Z,11.40
2023-04-17T16:20:36.215Z,7.60
2023-04-17T16:23:07.699Z,7.50
2023-04-17T16:25:39.053Z,10.50
2023-04-17T16:28:10.109Z,13.00
2023-04-17T16:30:41.238Z,10.80
2023-04-17T16:33:12.433Z,8.50
2023-04-17T16:35:43.506Z,8.90
2023-04-17T16:38:14.468Z,9.70
2023-04-17T16:40:45.741Z,7.70
2023-04-17T16:43:17.165Z,9.00
2023-04-17T16:45:48.296Z,8.20
2023-04-17T16:48:19.673Z,6.00
2023-04-17T16:50:50.828Z,10.40
2023-04-17T16:53:21.985Z,7.80
2023-04-17T16:55:53.777Z,9.40
2023-04-17T16:58:26.056Z,5.40
2023-04-17T17:00:57.710Z,9.80
2023-04-17T17:03:28.897Z,6.60
2023-04-17T17:06:03.412Z,9.70
2023-04-17T17:08:34.526Z,7.40
2023-04-17T17:11:05.952Z,7.80
2023-04-17T17:13:37.173Z,7.00
2023-04-17T17:16:08.355Z,11.60
2023-04-17T17:18:39.490Z,10.70
2023-04-17T17:21:11.373Z,19.30
2023-04-17T17:23:43.350Z,7.50
2023-04-17T17:26:14.745Z,7.40
2023-04-17T17:28:51.245Z,6.40
2023-04-17T17:31:22.735Z,7.20
2023-04-17T17:33:55.262Z,11.50
2023-04-17T17:36:26.349Z,8.40
2023-04-17T17:38:58.386Z,7.70
2023-04-17T17:41:29.905Z,8.30
2023-04-17T17:44:00.853Z,7.30
2023-04-17T17:46:34.198Z,7.10
2023-04-17T17:49:05.599Z,7.00
2023-04-17T17:51:36.529Z,8.40
2023-04-17T17:54:08.065Z,6.60
2023-04-17T17:56:39.154Z,9.30
2023-04-17T17:59:10.428Z,9.90
2023-04-17T18:01:41.696Z,7.00
2023-04-17T18:04:13.376Z,8.70
2023-04-17T18:06:44.544Z,8.20
2023-04-17T18:09:15.618Z,8.50
2023-04-17T18:11:46.747Z,8.00
2023-04-17T18:16:48.544Z,6.20
2023-04-17T18:19:19.659Z,8.60
2023-04-17T18:21:54.196Z,8.30
2023-04-17T18:24:26.166Z,11.70
2023-04-17T18:26:57.437Z,9.60
2023-04-17T18:29:28.573Z,8.00
2023-04-17T18:32:00.216Z,7.70
2023-04-17T18:34:31.129Z,9.40
2023-04-17T18:39:32.483Z,7.40
2023-04-17T18:42:03.339Z,7.50
2023-04-17T18:44:34.546Z,7.70
2023-04-17T18:47:05.442Z,5.90
2023-04-17T18:49:36.978Z,5.90
2023-04-17T18:52:08.613Z,9.90
2023-04-17T18:54:40.098Z,9.70
2023-04-17T18:57:11.410Z,6.30
2023-04-17T18:59:43.332Z,10.60
2023-04-17T19:02:14.959Z,9.60
2023-04-17T19:04:46.013Z,11.60
2023-04-17T19:07:17.997Z,9.90
2023-04-17T19:09:49.117Z,9.50
2023-04-17T19:12:20.468Z,9.20
2023-04-17T19:14:51.979Z,9.60
2023-04-17T19:17:23.262Z,10.10
2023-04-17T19:19:54.609Z,10.30
2023-04-17T19:22:26.160Z,9.90
2023-04-17T19:24:57.384Z,11.70
2023-04-17T19:27:28.517Z,13.50
2023-04-17T19:29:59.852Z,10.50
2023-04-17T19:32:32.392Z,10.70
2023-04-17T19:35:03.552Z,11.20
2023-04-17T19:37:35.077Z,9.80
2023-04-17T19:40:21.447Z,10.30
2023-04-17T19:43:01.344Z,10.00
2023-04-17T19:45:34.773Z,12.90
2023-04-17T19:48:06.542Z,10.20
2023-04-17T19:50:40.424Z,10.50
2023-04-17T19:53:13.641Z,10.90
2023-04-17T19:55:44.778Z,11.70
2023-04-17T19:58:15.871Z,11.20
2023-04-17T20:00:47.688Z,8.70
2023-04-17T20:03:19.425Z,9.60
2023-04-17T20:05:50.886Z,10.90
2023-04-17T20:08:22.189Z,9.80
2023-04-17T20:10:53.345Z,11.30
2023-04-17T20:13:24.404Z,9.80
2023-04-17T20:15:57.198Z,10.70
2023-04-17T20:18:28.756Z,11.20
2023-04-17T20:21:01.320Z,10.70
2023-04-17T20:23:32.655Z,10.30
2023-04-17T20:26:03.984Z,6.00
2023-04-17T20:28:35.167Z,10.60
2023-04-17T20:31:06.943Z,9.70
2023-04-17T20:33:37.979Z,9.40
2023-04-17T20:38:39.192Z,8.10
2023-04-17T20:41:10.369Z,9.40
2023-04-17T20:43:41.886Z,7.80
2023-04-17T20:46:12.769Z,8.20
2023-04-17T20:48:45.146Z,6.70
2023-04-17T20:51:18.199Z,8.00
2023-04-17T20:53:50.994Z,7.10
2023-04-17T20:56:33.119Z,7.00
2023-04-17T20:59:16.295Z,7.40
2023-04-17T21:02:00.922Z,7.50
2023-04-17T21:04:37.218Z,5.70
2023-04-17T21:07:15.336Z,5.00
2023-04-17T21:09:53.578Z,4.70
2023-04-17T21:12:34.347Z,4.60
2023-04-17T21:15:14.145Z,4.90
2023-04-17T21:17:47.611Z,5.50
2023-04-17T21:20:19.799Z,4.90
2023-04-17T21:22:51.655Z,4.30
2023-04-17T21:25:32.455Z,4.70
2023-04-17T21:28:08.441Z,4.30
2023-04-17T21:30:41.932Z,4.10
2023-04-17T21:33:19.607Z,6.10
2023-04-17T21:35:53.275Z,7.10
2023-04-17T21:38:24.366Z,8.40
2023-04-17T21:40:55.450Z,9.40
2023-04-17T21:43:27.574Z,9.20
2023-04-17T21:45:59.022Z,8.40
2023-04-17T21:48:30.546Z,7.50
2023-04-17T21:51:05.354Z,9.70
2023-04-17T21:53:37.834Z,11.90
2023-04-17T21:56:09.672Z,10.10
2023-04-17T21:58:40.698Z,10.30
2023-04-17T22:03:41.003Z,10.00
2023-04-17T22:06:12.488Z,13.30
2023-04-17T22:08:43.425Z,9.80
2023-04-17T22:13:45.099Z,12.90
2023-04-17T22:16:19.364Z,15.00
2023-04-17T22:18:50.459Z,11.70
2023-04-17T22:23:51.019Z,9.80
2023-04-17T22:28:52.373Z,15.00
2023-04-17T22:31:23.374Z,12.00
2023-04-17T22:33:54.221Z,11.10
2023-04-17T22:36:24.942Z,12.60
2023-04-17T22:38:56.010Z,13.90
2023-04-17T22:41:27.071Z,13.00
2023-04-17T22:46:27.364Z,7.90
2023-04-17T22:51:29.508Z,10.70
2023-04-17T22:54:19.189Z,11.50
2023-04-17T22:56:51.798Z,11.30
2023-04-17T22:59:22.591Z,10.40
2023-04-17T23:01:53.938Z,10.40
2023-04-17T23:04:25.980Z,11.50
2023-04-17T23:06:57.039Z,9.30
2023-04-17T23:09:28.021Z,10.30
2023-04-17T23:14:28.821Z,8.50
2023-04-17T23:17:00.305Z,10.20
2023-04-17T23:19:31.312Z,7.40
2023-04-17T23:22:03.014Z,7.30
2023-04-17T23:24:37.987Z,7.40
2023-04-17T23:27:09.174Z,5.30
2023-04-17T23:29:40.201Z,7.30
2023-04-17T23:32:11.859Z,7.30
2023-04-17T23:34:48.456Z,5.90
2023-04-17T23:37:19.538Z,4.70
2023-04-17T23:39:50.814Z,5.40
2023-04-17T23:44:51.316Z,5.20
2023-04-17T23:47:22.409Z,4.30
2023-04-17T23:49:53.617Z,5.20
2023-04-17T23:52:24.589Z,3.70
2023-04-17T23:54:55.883Z,3.40
2023-04-17T23:57:27.097Z,4.40
2023-04-17T23:59:58.203Z,4.40
